Rockport, Texas
Current Conditions -  °F | °C
As of 10:30 AM on Friday 19 Dec 2014 (Local Time) from KRKP Reporting Station
Light Rain Light Rain  
Wind Chill: 57°   Ceiling: 900
Heat Index: 57°   Visibility: 7mi
Dew Point: 54°   Wind: 18mph
Humidity: 89%   Direction: 350°N
Pressure: 30.04"   Gusts: 25mph
Location:  28.01°N, 97.06°W
Report Text: KRKP 191630Z AUTO 35016G22KT 7SM -RA BKN009 OVC014 14/12 A3004 RMK AO2 PK WND 35026/1617 P0000 T01390122
Loading
Personal Weather Stations






























Interactive Weather Map New forecast layout! Learn more

10-Day Weather Forecast

Advertisements
Track Severe Weather on mobile